createdAt,value
2022-09-10T00:02:23.824Z,94899.38
2022-09-10T00:04:51.662Z,94894.72
2022-09-10T00:07:19.433Z,94885.16
2022-09-10T00:09:47.032Z,94893.31
2022-09-10T00:12:14.998Z,94898.25
2022-09-10T00:14:42.688Z,94899.34
2022-09-10T00:17:11.651Z,94894.44
2022-09-10T00:19:39.244Z,94894.16
2022-09-10T00:22:06.909Z,94893.91
2022-09-10T00:24:34.775Z,94886.53
2022-09-10T00:27:02.805Z,94886.00
2022-09-10T00:29:31.684Z,94886.06
2022-09-10T00:31:59.281Z,94893.19
2022-09-10T00:34:28.301Z,94885.28
2022-09-10T00:36:55.948Z,94884.19
2022-09-10T00:39:23.522Z,94884.75
2022-09-10T00:41:52.466Z,94866.69
2022-09-10T00:44:56.064Z,94870.28
2022-09-10T00:47:26.523Z,94872.69
2022-09-10T00:49:58.655Z,94875.41
2022-09-10T00:52:27.769Z,94869.44
2022-09-10T00:54:55.487Z,94868.63
2022-09-10T00:57:24.522Z,94866.69
2022-09-10T00:59:54.838Z,94870.53
2022-09-10T01:02:22.744Z,94863.72
2022-09-10T01:04:50.378Z,94865.13
2022-09-10T01:07:21.403Z,94865.41
2022-09-10T01:09:49.263Z,94861.31
2022-09-10T01:12:25.365Z,94860.00
2022-09-10T01:15:05.530Z,94858.34
2022-09-10T01:17:40.183Z,94851.53
2022-09-10T01:20:43.678Z,94854.00
2022-09-10T01:23:31.598Z,94848.84
2022-09-10T01:26:07.315Z,94849.09
2022-09-10T01:28:39.609Z,94845.56
2022-09-10T01:31:12.073Z,94843.91
2022-09-10T01:33:44.073Z,94838.41
2022-09-10T01:36:16.784Z,94842.50
2022-09-10T01:38:44.622Z,94835.63
2022-09-10T01:41:14.262Z,94830.69
2022-09-10T01:43:43.368Z,94826.88
2022-09-10T01:46:21.929Z,94830.94
2022-09-10T01:49:05.463Z,94823.03
2022-09-10T01:51:43.845Z,94823.03
2022-09-10T01:54:24.812Z,94816.97
2022-09-10T01:56:57.214Z,94819.97
2022-09-10T01:59:30.900Z,94819.97
2022-09-10T02:02:03.911Z,94817.50
2022-09-10T02:04:31.883Z,94827.31
2022-09-10T02:06:59.895Z,94830.03
2022-09-10T02:09:28.002Z,94822.59
2022-09-10T02:11:56.121Z,94827.78
2022-09-10T02:14:24.390Z,94817.91
2022-09-10T02:16:55.474Z,94823.88
2022-09-10T02:19:23.141Z,94831.00
2022-09-10T02:21:51.073Z,94822.53
2022-09-10T02:24:18.786Z,94821.19
2022-09-10T02:26:47.225Z,94823.66
2022-09-10T02:29:16.604Z,94819.00
2022-09-10T02:31:44.857Z,94811.91
2022-09-10T02:34:15.793Z,94812.72
2022-09-10T02:36:43.731Z,94813.03
2022-09-10T02:39:11.366Z,94815.50
2022-09-10T02:41:39.611Z,94814.69
2022-09-10T02:44:07.499Z,94819.88
2022-09-10T02:46:35.387Z,94814.16
2022-09-10T02:49:03.411Z,94810.31
2022-09-10T02:51:32.532Z,94813.31
2022-09-10T02:54:00.238Z,94818.00
2022-09-10T02:56:27.922Z,94811.19
2022-09-10T02:58:55.768Z,94811.75
2022-09-10T03:01:24.014Z,94809.28
2022-09-10T03:03:52.200Z,94797.28
2022-09-10T03:06:21.450Z,94795.91
2022-09-10T03:08:51.169Z,94795.91
2022-09-10T03:11:19.643Z,94794.03
2022-09-10T03:13:47.951Z,94792.38
2022-09-10T03:16:15.855Z,94792.91
2022-09-10T03:18:44.064Z,94796.19
2022-09-10T03:21:14.802Z,94789.09
2022-09-10T03:23:44.657Z,94794.56
2022-09-10T03:26:15.186Z,94800.00
2022-09-10T03:28:43.920Z,94796.19
2022-09-10T03:31:12.244Z,94804.94
2022-09-10T03:33:40.889Z,94796.75
2022-09-10T03:36:08.687Z,94806.84
2022-09-10T03:38:36.410Z,94806.03
2022-09-10T03:41:04.756Z,94814.22
2022-09-10T03:43:33.801Z,94806.84
2022-09-10T03:46:02.565Z,94813.16
2022-09-10T03:48:30.657Z,94808.22
2022-09-10T03:50:58.427Z,94805.47
2022-09-10T03:53:26.362Z,94807.63
2022-09-10T03:55:55.721Z,94799.72
2022-09-10T03:58:23.620Z,94806.81
2022-09-10T04:00:52.768Z,94801.59
2022-09-10T04:03:21.109Z,94799.16
2022-09-10T04:05:48.749Z,94809.56
2022-09-10T04:08:16.782Z,94804.41
2022-09-10T04:10:44.794Z,94803.06
2022-09-10T04:13:12.719Z,94809.38
2022-09-10T04:15:40.774Z,94809.09
2022-09-10T04:18:11.574Z,94800.66
2022-09-10T04:20:39.421Z,94806.66
2022-09-10T04:23:07.283Z,94802.03
2022-09-10T04:25:34.925Z,94799.31
2022-09-10T04:28:02.859Z,94810.53
2022-09-10T04:30:30.525Z,94813.00
2022-09-10T04:32:58.156Z,94802.88
2022-09-10T04:35:27.447Z,94804.53
2022-09-10T04:37:55.261Z,94815.47
2022-09-10T04:40:22.965Z,94811.06
2022-09-10T04:42:50.593Z,94810.56
2022-09-10T04:45:19.144Z,94814.09
2022-09-10T04:47:47.519Z,94810.56
2022-09-10T04:50:15.500Z,94805.63
2022-09-10T04:52:44.490Z,94810.56
2022-09-10T04:55:12.839Z,94813.59
2022-09-10T04:57:40.600Z,94816.59
2022-09-10T05:00:12.361Z,94825.63
2022-09-10T05:02:39.983Z,94821.53
2022-09-10T05:05:08.606Z,94830.00
2022-09-10T05:07:36.267Z,94820.75
2022-09-10T05:10:07.044Z,94834.16
2022-09-10T05:12:34.681Z,94833.03
2022-09-10T05:15:03.246Z,94829.78
2022-09-10T05:17:30.839Z,94831.44
2022-09-10T05:19:58.529Z,94837.44
2022-09-10T05:22:30.499Z,94844.56
2022-09-10T05:25:02.724Z,94847.59
2022-09-10T05:27:31.704Z,94852.81
2022-09-10T05:29:59.328Z,94853.34
2022-09-10T05:32:27.026Z,94845.16
2022-09-10T05:34:54.683Z,94845.69
2022-09-10T05:37:22.333Z,94847.34
2022-09-10T05:39:49.994Z,94856.38
2022-09-10T05:42:18.692Z,94854.19
2022-09-10T05:44:47.669Z,94863.22
2022-09-10T05:47:15.382Z,94866.50
2022-09-10T05:49:43.029Z,94873.63
2022-09-10T05:52:10.709Z,94885.16
2022-09-10T05:54:38.346Z,94884.56
2022-09-10T05:57:06.544Z,94885.41
2022-09-10T05:59:36.393Z,94885.91
2022-09-10T06:02:05.514Z,94891.38
2022-09-10T06:04:33.217Z,94891.63
2022-09-10T06:07:01.865Z,94880.38
2022-09-10T06:09:29.485Z,94888.84
2022-09-10T06:11:57.131Z,94885.56
2022-09-10T06:14:24.920Z,94882.50
2022-09-10T06:16:54.650Z,94881.94
2022-09-10T06:19:23.646Z,94900.78
2022-09-10T06:21:52.345Z,94900.78
2022-09-10T06:24:20.546Z,94899.13
2022-09-10T06:26:49.461Z,94903.53
2022-09-10T06:29:18.784Z,94894.25
2022-09-10T06:31:47.098Z,94893.16
2022-09-10T06:34:19.101Z,94895.88
2022-09-10T06:36:50.640Z,94905.19
2022-09-10T06:39:18.471Z,94900.78
2022-09-10T06:41:49.582Z,94891.78
2022-09-10T06:44:18.412Z,94889.81
2022-09-10T06:49:33.607Z,94892.59
2022-09-10T06:52:03.008Z,94901.94
2022-09-10T06:54:30.624Z,94893.75
2022-09-10T06:56:58.334Z,94901.13
2022-09-10T06:59:26.047Z,94894.88
2022-09-10T07:01:55.217Z,94895.44
2022-09-10T07:04:22.869Z,94902.03
2022-09-10T07:06:51.486Z,94895.19
2022-09-10T07:09:20.967Z,94888.38
2022-09-10T07:11:48.617Z,94888.44
2022-09-10T07:14:16.222Z,94897.75
2022-09-10T07:16:44.637Z,94901.31
2022-09-10T07:19:15.015Z,94902.13
2022-09-10T07:21:42.713Z,94897.75
2022-09-10T07:24:12.129Z,94899.03
2022-09-10T07:26:41.360Z,94894.44
2022-09-10T07:29:08.973Z,94896.13
2022-09-10T07:31:38.209Z,94900.53
2022-09-10T07:34:06.056Z,94902.44
2022-09-10T07:36:33.682Z,94899.47
2022-09-10T07:39:01.934Z,94902.81
2022-09-10T07:41:31.990Z,94900.13
2022-09-10T07:44:01.015Z,94906.16
2022-09-10T07:46:28.665Z,94896.59
2022-09-10T07:48:57.884Z,94899.88
2022-09-10T07:51:27.038Z,94908.38
2022-09-10T07:53:55.331Z,94910.31
2022-09-10T07:56:24.130Z,94910.31
2022-09-10T07:58:52.704Z,94916.34
2022-09-10T08:01:21.786Z,94918.28
2022-09-10T08:03:49.465Z,94921.03
2022-09-10T08:06:18.396Z,94917.50
2022-09-10T08:08:46.007Z,94920.78
2022-09-10T08:11:16.661Z,94926.34
2022-09-10T08:13:46.157Z,94926.06
2022-09-10T08:16:16.281Z,94931.25
2022-09-10T08:18:45.455Z,94929.59
2022-09-10T08:21:13.663Z,94928.47
2022-09-10T08:23:41.643Z,94931.78
2022-09-10T08:26:09.711Z,94932.28
2022-09-10T08:28:37.667Z,94940.22
2022-09-10T08:31:07.675Z,94950.91
2022-09-10T08:33:36.165Z,94941.31
2022-09-10T08:36:06.093Z,94952.00
2022-09-10T08:38:35.661Z,94948.97
2022-09-10T08:41:09.581Z,94960.22
2022-09-10T08:43:42.809Z,94960.47
2022-09-10T08:46:16.366Z,94967.00
2022-09-10T08:48:45.493Z,94968.59
2022-09-10T08:51:18.738Z,94969.13
2022-09-10T08:53:51.186Z,94977.53
2022-09-10T08:56:21.012Z,94973.38
2022-09-10T08:58:52.122Z,94966.72
2022-09-10T09:01:30.482Z,94965.34
2022-09-10T09:04:01.607Z,94965.13
2022-09-10T09:06:37.561Z,94973.34
2022-09-10T09:09:05.750Z,94968.13
2022-09-10T09:11:41.960Z,94972.78
2022-09-10T09:14:18.638Z,94971.16
2022-09-10T09:17:28.053Z,94986.00
2022-09-10T09:20:02.804Z,94981.00
2022-09-10T09:22:39.957Z,94978.28
2022-09-10T09:25:12.812Z,94980.72
2022-09-10T09:30:49.355Z,94984.84
2022-09-10T09:33:20.999Z,94978.78
2022-09-10T09:35:53.087Z,94967.22
2022-09-10T09:38:24.666Z,94978.16
2022-09-10T09:40:56.331Z,94985.84
2022-09-10T09:43:33.872Z,94974.03
2022-09-10T09:46:01.967Z,94968.88
2022-09-10T09:48:36.262Z,94966.63
2022-09-10T09:51:05.020Z,94969.38
2022-09-10T09:53:34.025Z,94974.28
2022-09-10T09:56:03.334Z,94975.13
2022-09-10T09:58:33.498Z,94979.88
2022-09-10T10:01:16.938Z,94976.59
2022-09-10T10:03:58.483Z,94974.38
2022-09-10T10:06:27.859Z,94977.41
2022-09-10T10:09:02.254Z,94975.78
2022-09-10T10:11:45.391Z,94969.19
2022-09-10T10:14:21.911Z,94973.31
2022-09-10T10:16:52.055Z,94967.25
2022-09-10T10:19:29.734Z,94966.16
2022-09-10T10:21:58.272Z,94970.25
2022-09-10T10:24:33.096Z,94967.47
2022-09-10T10:27:01.214Z,94965.53
2022-09-10T10:29:29.325Z,94963.94
2022-09-10T10:31:57.514Z,94966.16
2022-09-10T10:34:39.361Z,94958.47
2022-09-10T10:37:14.679Z,94958.00
2022-09-10T10:40:01.069Z,94957.38
2022-09-10T10:42:30.987Z,94953.50
2022-09-10T10:45:13.424Z,94958.69
2022-09-10T10:47:46.809Z,94944.00
2022-09-10T10:50:22.677Z,94951.44
2022-09-10T10:53:04.584Z,94950.34
2022-09-10T10:55:36.986Z,94939.84
2022-09-10T10:58:26.166Z,94953.59
2022-09-10T11:00:58.740Z,94945.25
2022-09-10T11:03:30.602Z,94948.19
2022-09-10T11:06:01.373Z,94948.06
2022-09-10T11:08:33.481Z,94938.41
2022-09-10T11:11:09.201Z,94937.03
2022-09-10T11:13:40.832Z,94939.38
2022-09-10T11:16:16.182Z,94946.94
2022-09-10T11:18:46.822Z,94945.63
2022-09-10T11:21:21.513Z,94934.91
2022-09-10T11:23:52.666Z,94936.09
2022-09-10T11:26:25.130Z,94945.44
2022-09-10T11:29:00.521Z,94936.00
2022-09-10T11:31:32.143Z,94936.44
2022-09-10T11:34:04.905Z,94935.38
2022-09-10T11:36:35.052Z,94928.78
2022-09-10T11:39:09.242Z,94922.09
2022-09-10T11:41:42.235Z,94920.63
2022-09-10T11:44:20.023Z,94917.19
2022-09-10T11:46:54.598Z,94927.28
2022-09-10T11:49:25.339Z,94923.88
2022-09-10T11:51:53.150Z,94902.91
2022-09-10T11:54:28.295Z,94908.75
2022-09-10T11:57:01.212Z,94911.44
2022-09-10T11:59:52.360Z,94907.47
2022-09-10T12:02:54.489Z,94908.22
2022-09-10T12:05:28.082Z,94908.78
2022-09-10T12:08:01.954Z,94917.31
2022-09-10T12:10:34.685Z,94917.63
2022-09-10T12:13:09.360Z,94917.47
2022-09-10T12:15:38.337Z,94915.03
2022-09-10T12:18:08.609Z,94913.16
2022-09-10T12:20:38.286Z,94918.66
2022-09-10T12:23:06.260Z,94928.00
2022-09-10T12:25:35.014Z,94930.75
2022-09-10T12:28:08.210Z,94931.84
2022-09-10T12:31:02.809Z,94923.66
2022-09-10T12:34:12.411Z,94921.19
2022-09-10T12:37:19.266Z,94908.25
2022-09-10T12:39:47.021Z,94915.97
2022-09-10T12:42:29.606Z,94916.00
2022-09-10T12:44:59.808Z,94916.00
2022-09-10T12:47:50.488Z,94905.63
2022-09-10T12:50:22.101Z,94913.91
2022-09-10T12:53:14.376Z,94902.84
2022-09-10T12:55:44.903Z,94902.56
2022-09-10T12:58:23.382Z,94904.06
2022-09-10T13:01:08.545Z,94896.59
2022-09-10T13:03:37.588Z,94890.25
2022-09-10T13:06:07.075Z,94890.56
2022-09-10T13:08:36.381Z,94888.75
2022-09-10T13:11:14.714Z,94890.75
2022-09-10T13:13:45.505Z,94886.53
2022-09-10T13:16:17.272Z,94885.13
2022-09-10T13:18:46.664Z,94888.22
2022-09-10T13:21:52.171Z,94888.56
2022-09-10T13:24:37.597Z,94889.16
2022-09-10T13:27:13.722Z,94876.19
2022-09-10T13:29:43.315Z,94886.44
2022-09-10T13:32:19.894Z,94883.25
2022-09-10T13:35:20.269Z,94882.88
2022-09-10T13:38:08.787Z,94879.31
2022-09-10T13:40:56.775Z,94870.16
2022-09-10T13:43:41.315Z,94873.59
2022-09-10T13:46:14.769Z,94868.56
2022-09-10T13:48:47.848Z,94866.91
2022-09-10T13:51:24.142Z,94865.00
2022-09-10T13:53:52.801Z,94869.38
2022-09-10T13:56:23.002Z,94873.94
2022-09-10T13:58:52.020Z,94881.84
2022-09-10T14:01:19.839Z,94871.78
2022-09-10T14:03:48.934Z,94861.94
2022-09-10T14:06:18.243Z,94867.38
2022-09-10T14:08:49.450Z,94859.63
2022-09-10T14:11:20.153Z,94854.47
2022-09-10T14:13:51.857Z,94845.41
2022-09-10T14:16:26.130Z,94847.47
2022-09-10T14:19:11.440Z,94846.78
2022-09-10T14:21:39.240Z,94844.03
2022-09-10T14:24:07.252Z,94855.06
2022-09-10T14:26:34.970Z,94860.28
2022-09-10T14:29:04.214Z,94855.56
2022-09-10T14:31:35.956Z,94856.91
2022-09-10T14:34:30.728Z,94862.84
2022-09-10T14:36:59.273Z,94856.38
2022-09-10T14:39:27.058Z,94861.09
2022-09-10T14:42:10.583Z,94848.84
2022-09-10T14:44:41.909Z,94853.81
2022-09-10T14:47:24.702Z,94857.81
2022-09-10T14:49:53.666Z,94862.09
2022-09-10T14:52:22.425Z,94861.59
2022-09-10T14:54:50.122Z,94859.31
2022-09-10T14:57:18.278Z,94863.16
2022-09-10T14:59:46.662Z,94857.16
2022-09-10T15:02:17.212Z,94851.94
2022-09-10T15:04:45.128Z,94854.19
2022-09-10T15:07:14.498Z,94854.19
2022-09-10T15:09:42.307Z,94858.03
2022-09-10T15:12:13.430Z,94864.31
2022-09-10T15:14:41.072Z,94882.97
2022-09-10T15:17:10.213Z,94901.28
2022-09-10T15:19:37.901Z,94896.66
2022-09-10T15:22:05.748Z,94902.63
2022-09-10T15:24:52.493Z,94912.38
2022-09-10T15:27:20.906Z,94909.09
2022-09-10T15:29:49.269Z,94908.75
2022-09-10T15:32:18.245Z,94912.66
2022-09-10T15:34:45.990Z,94904.47
2022-09-10T15:37:13.843Z,94908.03
2022-09-10T15:39:43.746Z,94893.75
2022-09-10T15:42:11.805Z,94896.81
2022-09-10T15:44:41.258Z,94889.41
2022-09-10T15:47:09.216Z,94891.00
2022-09-10T15:49:37.137Z,94891.88
2022-09-10T15:52:04.989Z,94898.47
2022-09-10T15:54:33.970Z,94883.66
2022-09-10T15:57:03.194Z,94874.84
2022-09-10T15:59:30.901Z,94873.22
2022-09-10T16:01:58.664Z,94876.72
2022-09-10T16:04:27.774Z,94872.41
2022-09-10T16:06:55.574Z,94878.69
2022-09-10T16:09:23.343Z,94871.78
2022-09-10T16:11:51.310Z,94866.00
2022-09-10T16:14:20.725Z,94871.97
2022-09-10T16:16:51.047Z,94860.41
2022-09-10T16:19:18.822Z,94875.19
2022-09-10T16:21:46.893Z,94874.09
2022-09-10T16:24:14.610Z,94866.66
2022-09-10T16:26:43.850Z,94870.53
2022-09-10T16:29:14.505Z,94876.31
2022-09-10T16:31:45.570Z,94872.97
2022-09-10T16:34:16.278Z,94881.22
2022-09-10T16:36:44.611Z,94877.38
2022-09-10T16:39:13.951Z,94885.09
2022-09-10T16:41:42.991Z,94880.69
2022-09-10T16:44:12.157Z,94882.91
2022-09-10T16:46:40.457Z,94882.09
2022-09-10T16:49:12.755Z,94881.56
2022-09-10T16:51:41.463Z,94885.44
2022-09-10T16:54:09.837Z,94894.75
2022-09-10T16:56:39.998Z,94890.69
2022-09-10T16:59:08.890Z,94895.91
2022-09-10T17:01:37.126Z,94886.59
2022-09-10T17:04:07.213Z,94880.31
2022-09-10T17:06:36.938Z,94883.06
2022-09-10T17:09:04.853Z,94890.75
2022-09-10T17:11:33.774Z,94888.03
2022-09-10T17:14:02.600Z,94889.16
2022-09-10T17:16:32.771Z,94880.94
2022-09-10T17:19:02.269Z,94883.16
2022-09-10T17:21:32.744Z,94885.94
2022-09-10T17:24:02.982Z,94882.66
2022-09-10T17:26:31.376Z,94883.22
2022-09-10T17:29:00.336Z,94888.97
2022-09-10T17:31:29.509Z,94890.31
2022-09-10T17:33:57.252Z,94881.00
2022-09-10T17:36:26.225Z,94882.66
2022-09-10T17:38:54.669Z,94884.84
2022-09-10T17:41:24.782Z,94884.84
2022-09-10T17:43:52.722Z,94887.59
2022-09-10T17:46:22.761Z,94890.09
2022-09-10T17:48:51.256Z,94893.94
2022-09-10T17:51:20.458Z,94902.47
2022-09-10T17:53:48.434Z,94899.97
2022-09-10T17:56:18.967Z,94908.50
2022-09-10T17:58:48.253Z,94910.66
2022-09-10T18:01:44.576Z,94918.91
2022-09-10T18:04:14.447Z,94920.81
2022-09-10T18:06:43.850Z,94924.97
2022-09-10T18:09:11.624Z,94927.97
2022-09-10T18:11:40.997Z,94916.16
2022-09-10T18:14:14.934Z,94918.38
2022-09-10T18:16:42.566Z,94922.22
2022-09-10T18:19:14.600Z,94922.75
2022-09-10T18:21:43.685Z,94921.66
2022-09-10T18:24:12.822Z,94917.84
2022-09-10T18:26:43.549Z,94917.84
2022-09-10T18:29:14.880Z,94919.47
2022-09-10T18:31:44.587Z,94919.75
2022-09-10T18:34:13.889Z,94923.59
2022-09-10T18:36:41.566Z,94920.28
2022-09-10T18:39:11.313Z,94926.88
2022-09-10T18:41:40.114Z,94938.63
2022-09-10T18:44:11.491Z,94941.63
2022-09-10T18:46:40.788Z,94946.28
2022-09-10T18:49:08.376Z,94943.81
2022-09-10T18:51:36.133Z,94948.44
2022-09-10T18:54:04.243Z,94945.16
2022-09-10T18:56:32.804Z,94952.84
2022-09-10T18:59:02.992Z,94960.78
2022-09-10T19:01:31.115Z,94958.31
2022-09-10T19:04:00.151Z,94966.00
2022-09-10T19:06:29.817Z,94969.28
2022-09-10T19:08:59.187Z,94973.66
2022-09-10T19:11:28.723Z,94978.28
2022-09-10T19:13:57.873Z,94974.19
2022-09-10T19:16:27.921Z,94980.78
2022-09-10T19:18:57.042Z,94987.91
2022-09-10T19:21:27.036Z,94991.47
2022-09-10T19:23:59.558Z,95005.69
2022-09-10T19:26:29.122Z,95009.81
2022-09-10T19:28:57.303Z,95003.81
2022-09-10T19:31:26.880Z,94998.31
2022-09-10T19:33:55.688Z,94984.91
2022-09-10T19:36:23.340Z,94984.06
2022-09-10T19:38:52.474Z,94980.78
2022-09-10T19:41:20.303Z,94979.16
2022-09-10T19:43:49.472Z,94979.69
2022-09-10T19:46:18.302Z,94980.78
2022-09-10T19:48:47.074Z,94976.94
2022-09-10T19:51:16.243Z,94977.47
2022-09-10T19:53:44.261Z,94976.66
2022-09-10T19:56:20.139Z,94967.88
2022-09-10T19:58:57.288Z,94967.34
2022-09-10T20:01:26.872Z,94975.56
2022-09-10T20:03:57.147Z,94979.41
2022-09-10T20:06:25.370Z,94962.97
2022-09-10T20:08:53.511Z,94968.13
2022-09-10T20:11:23.935Z,94973.06
2022-09-10T20:13:55.579Z,94971.41
2022-09-10T20:16:25.073Z,94979.88
2022-09-10T20:18:53.455Z,94978.25
2022-09-10T20:22:00.376Z,94977.97
2022-09-10T20:24:28.715Z,94966.75
2022-09-10T20:26:57.750Z,94975.22
2022-09-10T20:29:50.243Z,94980.44
2022-09-10T20:32:17.898Z,94982.31
2022-09-10T20:34:45.606Z,94982.31
2022-09-10T20:37:13.280Z,94978.50
2022-09-10T20:39:42.648Z,94990.00
2022-09-10T20:42:12.074Z,94988.91
2022-09-10T20:44:39.715Z,94982.84
2022-09-10T20:47:08.092Z,94985.03
2022-09-10T20:49:35.746Z,94992.16
2022-09-10T20:52:04.497Z,94991.03
2022-09-10T20:54:32.155Z,94987.22
2022-09-10T20:56:59.837Z,94995.19
2022-09-10T20:59:29.134Z,94999.84
2022-09-10T21:01:56.982Z,94990.53
2022-09-10T21:04:24.670Z,94985.88
2022-09-10T21:06:52.311Z,94992.19
2022-09-10T21:09:19.924Z,94996.84
2022-09-10T21:11:47.649Z,94996.53
2022-09-10T21:14:15.408Z,95001.47
2022-09-10T21:16:47.183Z,94998.47
2022-09-10T21:19:17.089Z,94996.84
2022-09-10T21:21:46.193Z,94997.09
2022-09-10T21:24:15.884Z,94990.50
2022-09-10T21:26:44.243Z,94996.53
2022-09-10T21:29:13.224Z,94997.09
2022-09-10T21:31:45.334Z,94996.50
2022-09-10T21:34:13.760Z,94998.16
2022-09-10T21:36:43.570Z,95003.91
2022-09-10T21:39:14.240Z,94999.78
2022-09-10T21:41:44.021Z,95005.25
2022-09-10T21:44:14.088Z,95009.38
2022-09-10T21:46:42.558Z,94999.50
2022-09-10T21:49:11.662Z,95001.44
2022-09-10T21:51:39.492Z,95013.19
2022-09-10T21:54:07.334Z,95012.63
2022-09-10T21:56:34.948Z,95012.88
2022-09-10T21:59:02.569Z,95018.38
2022-09-10T22:01:32.156Z,95016.16
2022-09-10T22:04:01.042Z,95017.28
2022-09-10T22:06:31.178Z,95006.06
2022-09-10T22:09:00.280Z,95021.91
2022-09-10T22:11:30.532Z,95023.00
2022-09-10T22:14:00.864Z,95019.41
2022-09-10T22:16:29.001Z,95021.63
2022-09-10T22:18:56.847Z,95018.88
2022-09-10T22:21:25.093Z,95018.06
2022-09-10T22:23:54.173Z,95018.88
2022-09-10T22:26:23.442Z,95017.22
2022-09-10T22:28:52.680Z,95019.94
2022-09-10T22:31:22.286Z,95020.50
2022-09-10T22:33:53.895Z,95013.91
2022-09-10T22:36:24.156Z,95015.56
2022-09-10T22:38:54.528Z,95004.91
2022-09-10T22:41:23.186Z,95008.41
2022-09-10T22:43:50.902Z,95013.59
2022-09-10T22:46:19.185Z,95012.25
2022-09-10T22:48:47.250Z,95013.63
2022-09-10T22:51:17.817Z,95016.63
2022-09-10T22:53:46.353Z,95022.63
2022-09-10T22:56:17.663Z,95024.00
2022-09-10T22:58:45.565Z,95018.25
2022-09-10T23:01:14.702Z,95020.44
2022-09-10T23:03:43.031Z,95015.75
2022-09-10T23:06:12.775Z,95020.97
2022-09-10T23:08:41.465Z,95017.94
2022-09-10T23:11:11.027Z,95014.94
2022-09-10T23:13:40.159Z,95016.28
2022-09-10T23:16:15.743Z,95011.63
2022-09-10T23:18:43.915Z,95019.53
2022-09-10T23:21:11.925Z,95017.59
2022-09-10T23:23:39.561Z,95014.81
2022-09-10T23:26:08.330Z,95013.19
2022-09-10T23:28:36.773Z,95022.22
2022-09-10T23:31:12.237Z,95021.91
2022-09-10T23:33:40.897Z,95024.09
2022-09-10T23:36:09.109Z,95023.00
2022-09-10T23:38:37.228Z,95015.06
2022-09-10T23:41:04.912Z,95022.19
2022-09-10T23:43:33.190Z,95019.72
2022-09-10T23:46:00.861Z,95019.41
2022-09-10T23:48:29.981Z,95018.91
2022-09-10T23:50:57.935Z,95019.72
2022-09-10T23:53:26.077Z,95021.38
2022-09-10T23:55:54.164Z,95015.31
2022-09-10T23:58:22.502Z,95013.16
